createdAt,value
2018-08-20T00:00:55.424Z,0.00
2018-08-20T00:01:55.446Z,0.00
2018-08-20T00:02:55.472Z,0.00
2018-08-20T00:03:55.485Z,0.00
2018-08-20T00:04:55.512Z,0.00
2018-08-20T00:05:55.537Z,0.00
2018-08-20T00:06:55.563Z,0.00
2018-08-20T00:07:55.577Z,0.00
2018-08-20T00:08:55.604Z,0.00
2018-08-20T00:09:55.629Z,0.00
2018-08-20T00:10:55.655Z,0.00
2018-08-20T00:11:55.668Z,0.00
2018-08-20T00:12:55.697Z,0.00
2018-08-20T00:13:55.720Z,0.00
2018-08-20T00:14:55.747Z,0.00
2018-08-20T00:15:55.761Z,0.00
2018-08-20T00:16:55.786Z,0.00
2018-08-20T00:17:55.812Z,0.00
2018-08-20T00:18:55.826Z,0.00
2018-08-20T00:19:55.851Z,0.00
2018-08-20T00:20:55.876Z,0.00
2018-08-20T00:21:55.903Z,0.00
2018-08-20T00:22:55.917Z,0.00
2018-08-20T00:23:55.942Z,0.00
2018-08-20T00:24:55.969Z,0.00
2018-08-20T00:25:55.995Z,0.00
2018-08-20T00:26:56.308Z,0.00
2018-08-20T00:27:56.033Z,0.00
2018-08-20T00:28:56.059Z,0.00
2018-08-20T00:29:56.085Z,0.00
2018-08-20T00:30:56.099Z,0.00
2018-08-20T00:31:56.125Z,0.00
2018-08-20T00:32:56.152Z,0.00
2018-08-20T00:33:56.166Z,0.00
2018-08-20T00:34:56.204Z,0.00
2018-08-20T00:35:56.216Z,0.00
2018-08-20T00:36:56.242Z,0.00
2018-08-20T00:37:56.255Z,0.00
2018-08-20T00:38:56.283Z,0.00
2018-08-20T00:39:56.307Z,0.00
2018-08-20T00:40:56.334Z,0.00
2018-08-20T00:41:56.347Z,0.00
2018-08-20T00:42:56.373Z,0.00
2018-08-20T00:43:56.401Z,0.00
2018-08-20T00:44:56.425Z,0.00
2018-08-20T00:45:56.438Z,0.00
2018-08-20T00:46:56.464Z,0.00
2018-08-20T00:47:56.491Z,0.00
2018-08-20T00:48:56.508Z,0.00
2018-08-20T00:49:56.545Z,0.00
2018-08-20T00:50:56.556Z,0.00
2018-08-20T00:51:56.581Z,0.00
2018-08-20T00:52:56.596Z,0.00
2018-08-20T00:53:56.621Z,0.00
2018-08-20T00:54:56.648Z,0.00
2018-08-20T00:55:56.673Z,0.00
2018-08-20T00:56:56.685Z,0.00
2018-08-20T00:57:56.724Z,0.00
2018-08-20T00:58:56.749Z,0.00
2018-08-20T00:59:56.752Z,0.00
2018-08-20T01:00:56.778Z,0.00
2018-08-20T01:01:56.804Z,0.00
2018-08-20T01:02:56.829Z,0.00
2018-08-20T01:03:56.843Z,0.00
2018-08-20T01:04:56.881Z,0.00
2018-08-20T01:05:56.894Z,0.00
2018-08-20T01:06:56.920Z,0.00
2018-08-20T01:07:56.934Z,0.00
2018-08-20T01:08:56.961Z,0.00
2018-08-20T01:09:56.989Z,0.00
2018-08-20T01:10:57.015Z,0.00
2018-08-20T01:11:57.026Z,0.00
2018-08-20T01:12:57.053Z,0.00
2018-08-20T01:13:57.077Z,0.00
2018-08-20T01:14:57.091Z,0.00
2018-08-20T01:15:57.118Z,0.00
2018-08-20T01:16:57.143Z,0.00
2018-08-20T01:17:57.169Z,0.00
2018-08-20T01:18:57.182Z,0.00
2018-08-20T01:19:57.221Z,0.00
2018-08-20T01:20:57.234Z,0.00
2018-08-20T01:21:57.248Z,0.00
2018-08-20T01:22:57.275Z,0.00
2018-08-20T01:23:57.303Z,0.00
2018-08-20T01:24:57.316Z,0.00
2018-08-20T01:25:57.340Z,0.00
2018-08-20T01:26:57.364Z,0.00
2018-08-20T01:27:57.390Z,0.00
2018-08-20T01:28:57.405Z,0.00
2018-08-20T01:29:57.430Z,0.00
2018-08-20T01:30:57.457Z,0.00
2018-08-20T01:31:57.470Z,0.00
2018-08-20T01:32:57.496Z,0.00
2018-08-20T01:33:57.521Z,0.00
2018-08-20T01:34:57.549Z,0.00
2018-08-20T01:35:57.561Z,0.00
2018-08-20T01:36:57.588Z,0.00
2018-08-20T01:37:57.613Z,0.00
2018-08-20T01:38:57.640Z,0.00
2018-08-20T01:39:57.652Z,0.00
2018-08-20T01:40:57.691Z,0.00
2018-08-20T01:41:57.703Z,0.00
2018-08-20T01:42:57.719Z,0.00
2018-08-20T01:43:57.745Z,0.00
2018-08-20T01:44:57.769Z,0.00
2018-08-20T01:45:57.795Z,0.00
2018-08-20T01:46:57.812Z,0.00
2018-08-20T01:47:57.836Z,0.00
2018-08-20T01:48:57.861Z,0.00
2018-08-20T01:49:57.875Z,0.00
2018-08-20T01:50:57.903Z,0.00
2018-08-20T01:51:57.926Z,0.00
2018-08-20T01:52:57.952Z,0.00
2018-08-20T01:53:57.965Z,0.00
2018-08-20T01:54:57.990Z,0.00
2018-08-20T01:55:58.018Z,0.00
2018-08-20T01:56:58.032Z,0.00
2018-08-20T01:57:58.057Z,0.00
2018-08-20T01:58:58.083Z,0.00
2018-08-20T01:59:58.109Z,0.00
2018-08-20T02:00:58.122Z,0.00
2018-08-20T02:01:58.148Z,0.00
2018-08-20T02:02:58.175Z,0.00
2018-08-20T02:03:58.189Z,0.00
2018-08-20T02:04:58.215Z,0.00
2018-08-20T02:05:58.239Z,0.00
2018-08-20T02:06:58.266Z,0.00
2018-08-20T02:07:58.278Z,0.00
2018-08-20T02:08:58.305Z,0.00
2018-08-20T02:09:58.330Z,0.00
2018-08-20T02:10:58.357Z,0.00
2018-08-20T02:11:58.371Z,0.00
2018-08-20T02:12:58.396Z,0.00
2018-08-20T02:13:58.423Z,0.00
2018-08-20T02:14:58.435Z,0.00
2018-08-20T02:15:58.461Z,0.00
2018-08-20T02:16:58.488Z,0.00
2018-08-20T02:17:58.529Z,0.00
2018-08-20T02:18:58.527Z,0.00
2018-08-20T02:19:58.554Z,0.00
2018-08-20T02:20:58.579Z,0.00
2018-08-20T02:21:58.593Z,0.00
2018-08-20T02:22:58.618Z,0.00
2018-08-20T02:23:58.656Z,0.00
2018-08-20T02:24:58.670Z,0.00
2018-08-20T02:25:58.684Z,0.00
2018-08-20T02:26:58.711Z,0.00
2018-08-20T02:27:58.737Z,0.00
2018-08-20T02:28:58.749Z,0.00
2018-08-20T02:29:58.774Z,0.00
2018-08-20T02:30:58.813Z,0.00
2018-08-20T02:31:58.826Z,0.00
2018-08-20T02:32:58.841Z,0.00
2018-08-20T02:33:58.867Z,0.00
2018-08-20T02:34:58.894Z,0.00
2018-08-20T02:35:58.909Z,0.00
2018-08-20T02:36:58.932Z,0.00
2018-08-20T02:37:58.957Z,0.00
2018-08-20T02:38:58.984Z,0.00
2018-08-20T02:39:58.996Z,0.00
2018-08-20T02:40:59.024Z,0.00
2018-08-20T02:41:59.050Z,0.00
2018-08-20T02:42:59.079Z,0.00
2018-08-20T02:43:59.089Z,0.00
2018-08-20T02:44:59.116Z,0.00
2018-08-20T02:45:59.140Z,0.00
2018-08-20T02:46:59.155Z,0.00
2018-08-20T02:47:59.180Z,0.00
2018-08-20T02:48:59.205Z,0.00
2018-08-20T02:49:59.232Z,0.00
2018-08-20T02:50:59.245Z,0.00
2018-08-20T02:51:59.272Z,0.00
2018-08-20T02:52:59.296Z,0.00
2018-08-20T02:53:59.311Z,0.00
2018-08-20T02:54:59.336Z,0.00
2018-08-20T02:55:59.362Z,0.00
2018-08-20T02:56:59.377Z,0.00
2018-08-20T02:57:59.401Z,0.00
2018-08-20T02:58:59.428Z,0.00
2018-08-20T02:59:59.454Z,0.00
2018-08-20T03:00:59.468Z,0.00
2018-08-20T03:01:59.494Z,0.00
2018-08-20T03:02:59.520Z,0.00
2018-08-20T03:03:59.533Z,0.00
2018-08-20T03:04:59.558Z,0.00
2018-08-20T03:05:59.583Z,0.00
2018-08-20T03:06:59.624Z,0.00
2018-08-20T03:07:59.624Z,0.00
2018-08-20T03:08:59.651Z,0.00
2018-08-20T03:09:59.677Z,0.00
2018-08-20T03:10:59.690Z,0.00
2018-08-20T03:11:59.716Z,0.00
2018-08-20T03:12:59.752Z,0.00
2018-08-20T03:13:59.781Z,0.00
2018-08-20T03:14:59.780Z,0.00
2018-08-20T03:15:59.806Z,0.00
2018-08-20T03:16:59.833Z,0.00
2018-08-20T03:17:59.845Z,0.00
2018-08-20T03:18:59.872Z,0.00
2018-08-20T03:19:59.897Z,0.00
2018-08-20T03:20:59.913Z,4.00
2018-08-20T03:21:59.938Z,4.00
2018-08-20T03:22:59.963Z,4.00
2018-08-20T03:23:59.990Z,0.00
2018-08-20T03:25:00.008Z,4.00
2018-08-20T03:26:00.035Z,4.00
2018-08-20T03:27:00.056Z,8.00
2018-08-20T03:28:00.068Z,4.00
2018-08-20T03:29:00.095Z,8.00
2018-08-20T03:30:00.122Z,8.00
2018-08-20T03:31:00.134Z,8.00
2018-08-20T03:32:00.159Z,12.00
2018-08-20T03:33:00.187Z,12.00
2018-08-20T03:34:00.225Z,16.00
2018-08-20T03:35:00.225Z,16.00
2018-08-20T03:36:00.252Z,24.00
2018-08-20T03:37:00.277Z,24.00
2018-08-20T03:38:00.292Z,28.00
2018-08-20T03:39:00.321Z,32.00
2018-08-20T03:40:00.343Z,40.00
2018-08-20T03:41:00.355Z,44.00
2018-08-20T03:42:00.386Z,52.00
2018-08-20T03:43:00.408Z,60.00
2018-08-20T03:44:00.421Z,68.00
2018-08-20T03:45:00.447Z,76.00
2018-08-20T03:46:00.473Z,88.00
2018-08-20T03:47:00.498Z,96.00
2018-08-20T03:48:00.514Z,108.00
2018-08-20T03:49:00.539Z,124.00
2018-08-20T03:50:00.565Z,132.00
2018-08-20T03:51:00.579Z,152.00
2018-08-20T03:52:00.603Z,164.00
2018-08-20T03:53:00.629Z,180.00
2018-08-20T03:54:00.643Z,200.00
2018-08-20T03:55:00.671Z,220.00
2018-08-20T03:56:00.696Z,240.00
2018-08-20T03:57:00.709Z,260.00
2018-08-20T03:58:00.747Z,288.00
2018-08-20T03:59:00.759Z,312.00
2018-08-20T04:00:00.785Z,336.00
2018-08-20T04:01:00.800Z,364.00
2018-08-20T04:02:00.827Z,396.00
2018-08-20T04:03:00.852Z,428.00
2018-08-20T04:04:00.877Z,460.00
2018-08-20T04:05:00.912Z,488.00
2018-08-20T04:06:00.919Z,524.00
2018-08-20T04:07:00.931Z,556.00
2018-08-20T04:08:00.958Z,592.00
2018-08-20T04:09:00.983Z,628.00
2018-08-20T04:10:00.998Z,668.00
2018-08-20T04:11:01.035Z,708.00
2018-08-20T04:12:01.047Z,752.00
2018-08-20T04:13:01.062Z,792.00
2018-08-20T04:14:01.087Z,836.00
2018-08-20T04:15:01.115Z,884.00
2018-08-20T04:16:01.128Z,928.00
2018-08-20T04:17:01.152Z,980.00
2018-08-20T04:18:01.178Z,1028.00
2018-08-20T04:19:01.205Z,1076.00
2018-08-20T04:20:01.229Z,1128.00
2018-08-20T04:21:01.247Z,1180.00
2018-08-20T04:22:01.270Z,1232.00
2018-08-20T04:23:01.282Z,1284.00
2018-08-20T04:24:01.310Z,1340.00
2018-08-20T04:25:01.334Z,1392.00
2018-08-20T04:26:01.353Z,1448.00
2018-08-20T04:27:01.375Z,1504.00
2018-08-20T04:28:01.400Z,1560.00
2018-08-20T04:29:01.413Z,1620.00
2018-08-20T04:30:01.439Z,1676.00
2018-08-20T04:31:01.466Z,1736.00
2018-08-20T04:32:01.479Z,1800.00
2018-08-20T04:33:01.506Z,1860.00
2018-08-20T04:34:01.531Z,1924.00
2018-08-20T04:35:01.558Z,1988.00
2018-08-20T04:36:01.570Z,2056.00
2018-08-20T04:37:01.596Z,2124.00
2018-08-20T04:38:01.622Z,2184.00
2018-08-20T04:39:01.640Z,2244.00
2018-08-20T04:40:01.671Z,2308.00
2018-08-20T04:41:01.689Z,2372.00
2018-08-20T04:42:01.706Z,2444.00
2018-08-20T04:43:01.728Z,2508.00
2018-08-20T04:44:01.754Z,2572.00
2018-08-20T04:45:01.767Z,2648.00
2018-08-20T04:46:01.794Z,2732.00
2018-08-20T04:47:01.819Z,2816.00
2018-08-20T04:48:01.845Z,2900.00
2018-08-20T04:49:01.860Z,2984.00
2018-08-20T04:50:01.939Z,3068.00
2018-08-20T04:51:01.957Z,3152.00
2018-08-20T04:52:01.930Z,3228.00
2018-08-20T04:53:01.949Z,3304.00
2018-08-20T04:54:01.976Z,3376.00
2018-08-20T04:55:01.992Z,3444.00
2018-08-20T04:56:02.014Z,3500.00
2018-08-20T04:57:02.040Z,3544.00
2018-08-20T04:58:02.077Z,3576.00
2018-08-20T04:59:02.081Z,3588.00
2018-08-20T05:00:02.105Z,3604.00
2018-08-20T05:01:02.132Z,3616.00
2018-08-20T05:02:02.144Z,3636.00
2018-08-20T05:03:02.173Z,3644.00
2018-08-20T05:04:02.276Z,3660.00
2018-08-20T05:05:02.211Z,3684.00
2018-08-20T05:06:02.237Z,3708.00
2018-08-20T05:07:02.262Z,3744.00
2018-08-20T05:08:02.288Z,3788.00
2018-08-20T05:09:02.302Z,3836.00
2018-08-20T05:10:02.407Z,3888.00
2018-08-20T05:11:02.353Z,3948.00
2018-08-20T05:12:02.368Z,4024.00
2018-08-20T05:13:02.394Z,4100.00
2018-08-20T05:14:02.419Z,4176.00
2018-08-20T05:15:02.446Z,4228.00
2018-08-20T05:16:02.459Z,4268.00
2018-08-20T05:17:02.484Z,4308.00
2018-08-20T05:18:02.510Z,4360.00
2018-08-20T05:19:02.615Z,4432.00
2018-08-20T05:20:02.550Z,4516.00
2018-08-20T05:21:02.578Z,4596.00
2018-08-20T05:22:02.607Z,4652.00
2018-08-20T05:23:02.615Z,4820.00
2018-08-20T05:24:02.641Z,5108.00
2018-08-20T05:25:02.669Z,5284.00
2018-08-20T05:26:02.681Z,5532.00
2018-08-20T05:27:02.708Z,5608.00
2018-08-20T05:28:02.733Z,5552.00
2018-08-20T05:29:02.759Z,5536.00
2018-08-20T05:30:02.772Z,5440.00
2018-08-20T05:31:02.811Z,5560.00
2018-08-20T05:32:02.823Z,5756.00
2018-08-20T05:33:02.838Z,6032.00
2018-08-20T05:34:02.864Z,6124.00
2018-08-20T05:35:02.890Z,6088.00
2018-08-20T05:36:02.916Z,6048.00
2018-08-20T05:37:02.928Z,6212.00
2018-08-20T05:38:02.968Z,6600.00
2018-08-20T05:39:02.980Z,6328.00
2018-08-20T05:40:03.007Z,6508.00
2018-08-20T05:41:03.021Z,7092.00
2018-08-20T05:42:03.046Z,7044.00
2018-08-20T05:43:03.072Z,7440.00
2018-08-20T05:44:03.098Z,7896.00
2018-08-20T05:45:03.112Z,7564.00
2018-08-20T05:46:03.136Z,7756.00
2018-08-20T05:47:03.164Z,7572.00
2018-08-20T05:48:03.177Z,7812.00
2018-08-20T05:49:03.250Z,8240.00
2018-08-20T05:50:03.231Z,8520.00
2018-08-20T05:51:03.255Z,8476.00
2018-08-20T05:52:03.268Z,8072.00
2018-08-20T05:53:03.293Z,8336.00
2018-08-20T05:54:03.320Z,8292.00
2018-08-20T05:55:03.347Z,8024.00
2018-08-20T05:56:03.371Z,8624.00
2018-08-20T05:57:03.386Z,9312.00
2018-08-20T05:58:03.411Z,10440.00
2018-08-20T05:59:03.483Z,10652.00
2018-08-20T06:00:03.465Z,11468.00
2018-08-20T06:01:03.476Z,11436.00
2018-08-20T06:02:03.503Z,12308.00
2018-08-20T06:03:03.528Z,11592.00
2018-08-20T06:04:03.554Z,11236.00
2018-08-20T06:05:03.580Z,11032.00
2018-08-20T06:06:03.594Z,12900.00
2018-08-20T06:07:03.621Z,12648.00
2018-08-20T06:08:03.646Z,10920.00
2018-08-20T06:09:03.674Z,12428.00
2018-08-20T06:10:03.700Z,13656.00
2018-08-20T06:11:03.712Z,12956.00
2018-08-20T06:12:03.737Z,13768.00
2018-08-20T06:13:03.775Z,12948.00
2018-08-20T06:14:03.789Z,11392.00
2018-08-20T06:15:03.815Z,11908.00
2018-08-20T06:16:03.844Z,11668.00
2018-08-20T06:17:03.855Z,11140.00
2018-08-20T06:18:03.882Z,10128.00
2018-08-20T06:19:03.907Z,9728.00
2018-08-20T06:20:03.933Z,11400.00
2018-08-20T06:21:03.960Z,14380.00
2018-08-20T06:22:03.985Z,15192.00
2018-08-20T06:23:04.015Z,19104.00
2018-08-20T06:24:04.025Z,18080.00
2018-08-20T06:25:04.125Z,15380.00
2018-08-20T06:26:04.076Z,15040.00
2018-08-20T06:27:04.103Z,11660.00
2018-08-20T06:28:04.127Z,13536.00
2018-08-20T06:29:04.156Z,28192.00
2018-08-20T06:30:04.180Z,32480.00
2018-08-20T06:31:04.205Z,31872.00
2018-08-20T06:32:04.231Z,23328.00
2018-08-20T06:33:04.257Z,28992.00
2018-08-20T06:34:04.285Z,34912.00
2018-08-20T06:35:04.327Z,28384.00
2018-08-20T06:36:04.324Z,22208.00
2018-08-20T06:37:04.354Z,16920.00
2018-08-20T06:38:04.376Z,16392.00
2018-08-20T06:39:04.403Z,16056.00
2018-08-20T06:40:04.427Z,18592.00
2018-08-20T06:41:04.453Z,18016.00
2018-08-20T06:42:04.479Z,23712.00
2018-08-20T06:43:04.506Z,15928.00
2018-08-20T06:44:04.531Z,15376.00
2018-08-20T06:45:04.583Z,15436.00
2018-08-20T06:46:04.599Z,15236.00
2018-08-20T06:47:04.631Z,27072.00
2018-08-20T06:48:04.649Z,16264.00
2018-08-20T06:49:04.673Z,16464.00
2018-08-20T06:50:04.699Z,17920.00
2018-08-20T06:51:04.724Z,19296.00
2018-08-20T06:52:04.754Z,25088.00
2018-08-20T06:53:04.776Z,29760.00
2018-08-20T06:54:04.802Z,19456.00
2018-08-20T06:55:04.828Z,19136.00
2018-08-20T06:56:04.855Z,21920.00
2018-08-20T06:57:04.883Z,21536.00
2018-08-20T06:58:04.906Z,19392.00
2018-08-20T06:59:04.933Z,29312.00
2018-08-20T07:00:04.958Z,39712.00
2018-08-20T07:01:04.985Z,39104.00
2018-08-20T07:02:05.011Z,35552.00
2018-08-20T07:03:05.051Z,18432.00
2018-08-20T07:04:05.076Z,20160.00
2018-08-20T07:05:05.103Z,20256.00
2018-08-20T07:06:05.127Z,24448.00
2018-08-20T07:07:05.154Z,20992.00
2018-08-20T07:08:05.179Z,20960.00
2018-08-20T07:09:05.204Z,23168.00
2018-08-20T07:10:05.231Z,18912.00
2018-08-20T07:11:05.269Z,13612.00
2018-08-20T07:12:05.297Z,10168.00
2018-08-20T07:13:05.320Z,8376.00
2018-08-20T07:14:05.352Z,7596.00
2018-08-20T07:15:05.372Z,8064.00
2018-08-20T07:16:05.398Z,8472.00
2018-08-20T07:17:05.425Z,9552.00
2018-08-20T07:18:05.449Z,11392.00
2018-08-20T07:19:05.477Z,12476.00
2018-08-20T07:20:05.502Z,12916.00
2018-08-20T07:21:05.540Z,12772.00
2018-08-20T07:22:05.568Z,12720.00
2018-08-20T07:23:05.615Z,12944.00
2018-08-20T07:24:05.619Z,13852.00
2018-08-20T07:25:05.645Z,14688.00
2018-08-20T07:26:05.671Z,14764.00
2018-08-20T07:27:05.696Z,15132.00
2018-08-20T07:28:05.723Z,16500.00
2018-08-20T07:29:05.748Z,17536.00
2018-08-20T07:30:05.774Z,18912.00
2018-08-20T07:31:05.804Z,20192.00
2018-08-20T07:32:05.826Z,19680.00
2018-08-20T07:33:05.903Z,18848.00
2018-08-20T07:34:05.890Z,19072.00
2018-08-20T07:35:05.916Z,19104.00
2018-08-20T07:36:05.941Z,19552.00
2018-08-20T07:37:05.972Z,20096.00
2018-08-20T07:38:06.006Z,19712.00
2018-08-20T07:39:06.019Z,19360.00
2018-08-20T07:40:06.045Z,19488.00
2018-08-20T07:41:06.078Z,19712.00
2018-08-20T07:42:06.098Z,19840.00
2018-08-20T07:43:06.136Z,19776.00
2018-08-20T07:44:06.163Z,19904.00
2018-08-20T07:45:06.195Z,20224.00
2018-08-20T07:46:06.214Z,20288.00
2018-08-20T07:47:06.240Z,19680.00
2018-08-20T07:48:06.266Z,19680.00
2018-08-20T07:49:06.292Z,20256.00
2018-08-20T07:50:06.318Z,21056.00
2018-08-20T07:51:06.356Z,21280.00
2018-08-20T07:52:06.381Z,21632.00
2018-08-20T07:53:06.409Z,21152.00
2018-08-20T07:54:06.433Z,20128.00
2018-08-20T07:55:06.461Z,19232.00
2018-08-20T07:56:06.486Z,19104.00
2018-08-20T07:57:06.513Z,19136.00
2018-08-20T07:58:06.539Z,18976.00
2018-08-20T07:59:06.576Z,18176.00
2018-08-20T08:00:06.603Z,17696.00
2018-08-20T08:01:06.629Z,16940.00
2018-08-20T08:02:06.657Z,16448.00
2018-08-20T08:03:06.680Z,16544.00
2018-08-20T08:04:06.707Z,16776.00
2018-08-20T08:05:06.744Z,16464.00
2018-08-20T08:06:06.770Z,15860.00
2018-08-20T08:07:06.796Z,15164.00
2018-08-20T08:08:06.823Z,14936.00
2018-08-20T08:09:06.848Z,14708.00
2018-08-20T08:10:06.875Z,14816.00
2018-08-20T08:11:06.902Z,15164.00
2018-08-20T08:12:06.927Z,15308.00
2018-08-20T08:13:06.967Z,15112.00
2018-08-20T08:14:07.045Z,14916.00
2018-08-20T08:15:07.018Z,14764.00
2018-08-20T08:16:07.042Z,14580.00
2018-08-20T08:17:07.069Z,14940.00
2018-08-20T08:18:07.094Z,16024.00
2018-08-20T08:19:07.133Z,16704.00
2018-08-20T08:20:07.159Z,17012.00
2018-08-20T08:21:07.185Z,17144.00
2018-08-20T08:22:07.210Z,17632.00
2018-08-20T08:23:07.236Z,17952.00
2018-08-20T08:24:07.265Z,18144.00
2018-08-20T08:25:07.288Z,17792.00
2018-08-20T08:26:07.314Z,17568.00
2018-08-20T08:27:07.341Z,17984.00
2018-08-20T08:28:07.379Z,18976.00
2018-08-20T08:29:07.405Z,18816.00
2018-08-20T08:30:07.431Z,18272.00
2018-08-20T08:31:07.456Z,16908.00
2018-08-20T08:32:07.483Z,15544.00
2018-08-20T08:33:07.509Z,15736.00
2018-08-20T08:34:07.534Z,16484.00
2018-08-20T08:35:07.561Z,16004.00
2018-08-20T08:36:07.586Z,15208.00
2018-08-20T08:37:07.623Z,15080.00
2018-08-20T08:38:07.739Z,14636.00
2018-08-20T08:39:07.676Z,14320.00
2018-08-20T08:40:07.702Z,14516.00
2018-08-20T08:41:07.729Z,14304.00
2018-08-20T08:42:07.767Z,14052.00
2018-08-20T08:43:07.780Z,13764.00
2018-08-20T08:44:07.818Z,14644.00
2018-08-20T08:45:07.845Z,15572.00
2018-08-20T08:46:07.870Z,15860.00
2018-08-20T08:47:07.897Z,15936.00
2018-08-20T08:48:07.922Z,16384.00
2018-08-20T08:49:07.949Z,16968.00
2018-08-20T08:50:07.975Z,17728.00
2018-08-20T08:51:08.014Z,18080.00
2018-08-20T08:52:08.027Z,18720.00
2018-08-20T08:53:08.065Z,19296.00
2018-08-20T08:54:08.134Z,19584.00
2018-08-20T08:55:08.116Z,19776.00
2018-08-20T08:56:08.141Z,20096.00
2018-08-20T08:57:08.167Z,20576.00
2018-08-20T08:58:08.205Z,20832.00
2018-08-20T08:59:08.219Z,20832.00
2018-08-20T09:00:08.246Z,21344.00
2018-08-20T09:01:08.286Z,21920.00
2018-08-20T09:02:08.310Z,22144.00
2018-08-20T09:03:08.336Z,21920.00
2018-08-20T09:04:08.363Z,21952.00
2018-08-20T09:05:08.391Z,22752.00
2018-08-20T09:06:08.414Z,24288.00
2018-08-20T09:07:08.440Z,25824.00
2018-08-20T09:08:08.479Z,26496.00
2018-08-20T09:09:08.503Z,26560.00
2018-08-20T09:10:08.530Z,26304.00
2018-08-20T09:11:08.557Z,26080.00
2018-08-20T09:12:08.584Z,25760.00
2018-08-20T09:13:08.607Z,25728.00
2018-08-20T09:14:08.651Z,26400.00
2018-08-20T09:15:08.672Z,28032.00
2018-08-20T09:16:08.700Z,29504.00
2018-08-20T09:17:08.725Z,29312.00
2018-08-20T09:18:08.750Z,27424.00
2018-08-20T09:19:08.801Z,25504.00
2018-08-20T09:20:08.827Z,24768.00
2018-08-20T09:21:08.840Z,24576.00
2018-08-20T09:22:08.869Z,24640.00
2018-08-20T09:23:08.894Z,25088.00
2018-08-20T09:24:08.931Z,25536.00
2018-08-20T09:25:08.957Z,25856.00
2018-08-20T09:26:08.983Z,26304.00
2018-08-20T09:27:09.013Z,25888.00
2018-08-20T09:28:09.047Z,25920.00
2018-08-20T09:29:09.075Z,27392.00
2018-08-20T09:30:09.098Z,28704.00
2018-08-20T09:31:09.125Z,28384.00
2018-08-20T09:32:09.199Z,26848.00
2018-08-20T09:33:09.189Z,25888.00
2018-08-20T09:34:09.226Z,25824.00
2018-08-20T09:35:09.242Z,25248.00
2018-08-20T09:36:09.280Z,24320.00
2018-08-20T09:37:09.305Z,23008.00
2018-08-20T09:38:09.361Z,21888.00
2018-08-20T09:39:09.357Z,21728.00
2018-08-20T09:40:09.396Z,22240.00
2018-08-20T09:41:09.422Z,21888.00
2018-08-20T09:42:09.448Z,21376.00
2018-08-20T09:43:09.473Z,21920.00
2018-08-20T09:44:09.512Z,20992.00
2018-08-20T09:45:09.538Z,18752.00
2018-08-20T09:46:09.564Z,18112.00
2018-08-20T09:47:09.591Z,17984.00
2018-08-20T09:48:09.628Z,17920.00
2018-08-20T09:49:09.655Z,17760.00
2018-08-20T09:50:09.680Z,17196.00
2018-08-20T09:51:09.718Z,16328.00
2018-08-20T09:52:09.745Z,15072.00
2018-08-20T09:53:09.770Z,13992.00
2018-08-20T09:54:09.796Z,13052.00
2018-08-20T09:55:09.840Z,12076.00
2018-08-20T09:56:09.861Z,10820.00
2018-08-20T09:57:09.887Z,9484.00
2018-08-20T09:58:09.913Z,8616.00
2018-08-20T09:59:09.963Z,8216.00
2018-08-20T10:00:09.978Z,8760.00
2018-08-20T10:01:10.003Z,11388.00
2018-08-20T10:02:10.028Z,14384.00
2018-08-20T10:03:10.055Z,16128.00
2018-08-20T10:04:10.093Z,16116.00
2018-08-20T10:05:10.121Z,15224.00
2018-08-20T10:06:10.148Z,15376.00
2018-08-20T10:07:10.177Z,15836.00
2018-08-20T10:08:10.197Z,15636.00
2018-08-20T10:09:10.224Z,15748.00
2018-08-20T10:10:10.260Z,16168.00
2018-08-20T10:11:10.293Z,16132.00
2018-08-20T10:12:10.313Z,15680.00
2018-08-20T10:13:10.341Z,14932.00
2018-08-20T10:14:10.364Z,13992.00
2018-08-20T10:15:10.391Z,13012.00
2018-08-20T10:16:10.431Z,12712.00
2018-08-20T10:17:10.455Z,12828.00
2018-08-20T10:18:10.482Z,12628.00
2018-08-20T10:19:10.507Z,12204.00
2018-08-20T10:20:10.535Z,11888.00
2018-08-20T10:21:10.560Z,12128.00
2018-08-20T10:22:10.597Z,12888.00
2018-08-20T10:23:10.623Z,13764.00
2018-08-20T10:24:10.649Z,14716.00
2018-08-20T10:25:10.675Z,15972.00
2018-08-20T10:26:10.701Z,17252.00
2018-08-20T10:27:10.727Z,18272.00
2018-08-20T10:28:10.753Z,18016.00
2018-08-20T10:29:10.794Z,17080.00
2018-08-20T10:30:10.817Z,16424.00
2018-08-20T10:31:10.843Z,16340.00
2018-08-20T10:32:10.929Z,16760.00
2018-08-20T10:33:10.897Z,17232.00
2018-08-20T10:34:10.925Z,17568.00
2018-08-20T10:35:10.960Z,17696.00
2018-08-20T10:36:10.984Z,17536.00
2018-08-20T10:37:11.011Z,17600.00
2018-08-20T10:38:11.037Z,17824.00
2018-08-20T10:39:11.062Z,18400.00
2018-08-20T10:40:11.089Z,18976.00
2018-08-20T10:41:11.115Z,18784.00
2018-08-20T10:42:11.141Z,17984.00
2018-08-20T10:43:11.179Z,17176.00
2018-08-20T10:44:11.206Z,17696.00
2018-08-20T10:45:11.231Z,19040.00
2018-08-20T10:46:11.258Z,22016.00
2018-08-20T10:47:11.283Z,27648.00
2018-08-20T10:48:11.309Z,38752.00
2018-08-20T10:49:11.347Z,60672.00
2018-08-20T10:50:11.449Z,44480.00
2018-08-20T10:51:11.399Z,45728.00
2018-08-20T10:52:11.425Z,39488.00
2018-08-20T10:53:11.452Z,36224.00
2018-08-20T10:54:11.490Z,34560.00
2018-08-20T10:55:11.515Z,32864.00
2018-08-20T10:56:11.569Z,31296.00
2018-08-20T10:57:11.567Z,30688.00
2018-08-20T10:58:11.605Z,28480.00
2018-08-20T10:59:11.632Z,25792.00
2018-08-20T11:00:11.657Z,23840.00
2018-08-20T11:01:11.696Z,22400.00
2018-08-20T11:02:11.824Z,21536.00
2018-08-20T11:03:11.748Z,21760.00
2018-08-20T11:04:11.779Z,21760.00
2018-08-20T11:05:11.811Z,21376.00
2018-08-20T11:06:11.839Z,19552.00
2018-08-20T11:07:11.865Z,16424.00
2018-08-20T11:08:11.903Z,14108.00
2018-08-20T11:09:11.929Z,12304.00
2018-08-20T11:10:12.024Z,10816.00
2018-08-20T11:11:11.993Z,9972.00
2018-08-20T11:12:12.018Z,9356.00
2018-08-20T11:13:12.045Z,8764.00
2018-08-20T11:14:12.083Z,8048.00
2018-08-20T11:15:12.110Z,7492.00
2018-08-20T11:16:12.136Z,7464.00
2018-08-20T11:17:12.160Z,8292.00
2018-08-20T11:18:12.207Z,9888.00
2018-08-20T11:19:12.225Z,12296.00
2018-08-20T11:20:12.250Z,14720.00
2018-08-20T11:21:12.278Z,15736.00
2018-08-20T11:22:12.316Z,17344.00
2018-08-20T11:23:12.341Z,18560.00
2018-08-20T11:24:12.367Z,18112.00
2018-08-20T11:25:12.395Z,16436.00
2018-08-20T11:26:12.420Z,15052.00
2018-08-20T11:27:12.458Z,14140.00
2018-08-20T11:28:12.483Z,12956.00
2018-08-20T11:29:12.522Z,11572.00
2018-08-20T11:30:12.566Z,10704.00
2018-08-20T11:31:12.562Z,10052.00
2018-08-20T11:32:12.600Z,9432.00
2018-08-20T11:33:12.630Z,9004.00
2018-08-20T11:34:12.651Z,8864.00
2018-08-20T11:35:12.678Z,9552.00
2018-08-20T11:36:12.708Z,10456.00
2018-08-20T11:37:12.745Z,13732.00
2018-08-20T11:38:12.768Z,18944.00
2018-08-20T11:39:12.794Z,22880.00
2018-08-20T11:40:12.821Z,25248.00
2018-08-20T11:41:12.846Z,25536.00
2018-08-20T11:42:12.872Z,24800.00
2018-08-20T11:43:12.918Z,24416.00
2018-08-20T11:44:12.936Z,24096.00
2018-08-20T11:45:12.962Z,24128.00
2018-08-20T11:46:12.988Z,24288.00
2018-08-20T11:47:13.014Z,23776.00
2018-08-20T11:48:13.055Z,22656.00
2018-08-20T11:49:13.107Z,22048.00
2018-08-20T11:50:13.106Z,21600.00
2018-08-20T11:51:13.129Z,17276.00
2018-08-20T11:52:13.169Z,14788.00
2018-08-20T11:53:13.194Z,14124.00
2018-08-20T11:54:13.221Z,14936.00
2018-08-20T11:55:13.246Z,15588.00
2018-08-20T11:56:13.272Z,15584.00
2018-08-20T11:57:13.309Z,15432.00
2018-08-20T11:58:13.336Z,15184.00
2018-08-20T11:59:13.362Z,14116.00
2018-08-20T12:00:13.389Z,12616.00
2018-08-20T12:01:13.414Z,11128.00
2018-08-20T12:02:13.453Z,9896.00
2018-08-20T12:03:13.478Z,9652.00
2018-08-20T12:04:13.504Z,9876.00
2018-08-20T12:05:13.530Z,9860.00
2018-08-20T12:06:13.558Z,10500.00
2018-08-20T12:07:13.613Z,12372.00
2018-08-20T12:08:13.619Z,14168.00
2018-08-20T12:09:13.647Z,15440.00
2018-08-20T12:10:13.672Z,16108.00
2018-08-20T12:11:13.698Z,15704.00
2018-08-20T12:12:13.727Z,15344.00
2018-08-20T12:13:13.749Z,15148.00
2018-08-20T12:14:13.788Z,13776.00
2018-08-20T12:15:13.814Z,12316.00
2018-08-20T12:16:13.840Z,12444.00
2018-08-20T12:17:13.929Z,13412.00